Time;durP1;ratioP1;P1;durP2;ratioP2;P2;SDS_P1;SDS_P2;PMS_P1;PMS_P2;Temp;Humidity;BMP_temperature;BMP_pressure;BME280_temperature;BME280_humidity;BME280_pressure;Samples;Min_cycle;Max_cycle;Signal;HPM_P1;HPM_P2
2023/10/14 00:00:27;;;;;;;6.57;1.60;;;20.30;61.40;;;;;;5018921;28;20272;-61
2023/10/14 00:02:55;;;;;;;5.47;1.73;;;20.30;61.70;;;;;;5023907;28;20316;-60
2023/10/14 00:05:23;;;;;;;5.40;1.95;;;20.30;61.40;;;;;;5031600;28;20188;-60
2023/10/14 00:07:53;;;;;;;4.28;1.88;;;20.30;61.50;;;;;;5015944;28;20301;-61
2023/10/14 00:10:22;;;;;;;6.38;1.98;;;20.30;61.20;;;;;;5025516;28;20185;-63
2023/10/14 00:12:53;;;;;;;6.45;1.88;;;20.30;61.30;;;;;;5022696;28;20315;-62
2023/10/14 00:15:21;;;;;;;8.68;2.45;;;20.30;61.30;;;;;;5031845;28;20205;-62
2023/10/14 00:17:49;;;;;;;5.28;1.88;;;20.30;61.20;;;;;;5015587;28;20237;-61
2023/10/14 00:20:17;;;;;;;5.85;2.00;;;20.30;60.90;;;;;;5026446;28;20613;-64
2023/10/14 00:22:44;;;;;;;4.10;1.60;;;20.30;61.00;;;;;;5022244;28;20264;-62
2023/10/14 00:25:19;;;;;;;5.65;1.90;;;20.30;60.70;;;;;;5025685;28;20191;-62
2023/10/14 00:27:47;;;;;;;6.22;1.70;;;20.30;60.60;;;;;;5015101;28;20217;-63
2023/10/14 00:30:19;;;;;;;7.95;1.83;;;20.30;60.50;;;;;;5025926;28;20276;-63
2023/10/14 00:32:47;;;;;;;6.30;2.15;;;20.30;60.50;;;;;;5021901;28;20762;-62
2023/10/14 00:35:18;;;;;;;8.20;2.55;;;20.30;60.50;;;;;;5113729;28;20201;-62
2023/10/14 00:37:46;;;;;;;7.85;2.03;;;20.30;60.50;;;;;;5097695;28;20225;-61
2023/10/14 00:40:22;;;;;;;8.48;1.90;;;20.20;60.50;;;;;;5108899;28;20190;-61
2023/10/14 00:42:50;;;;;;;6.80;1.70;;;20.30;60.50;;;;;;5104919;28;20224;-62
2023/10/14 00:45:20;;;;;;;5.43;1.83;;;20.20;60.40;;;;;;5099995;28;20190;-62
2023/10/14 00:47:49;;;;;;;5.78;1.95;;;20.20;60.40;;;;;;5111224;28;20225;-63
2023/10/14 00:50:29;;;;;;;7.20;2.03;;;20.20;60.40;;;;;;5100215;28;20190;-62
2023/10/14 00:53:04;;;;;;;6.45;1.75;;;20.20;60.10;;;;;;5102121;28;20573;-60
2023/10/14 00:55:46;;;;;;;6.07;1.70;;;20.20;60.10;;;;;;5110459;28;20196;-59
2023/10/14 00:58:20;;;;;;;6.18;1.90;;;20.20;60.10;;;;;;5099257;28;20223;-63
2023/10/14 01:00:58;;;;;;;4.70;1.77;;;20.20;60.00;;;;;;5103681;28;20201;-62
2023/10/14 01:03:25;;;;;;;5.07;2.00;;;20.20;60.00;;;;;;5109071;28;20221;-59
2023/10/14 01:05:56;;;;;;;4.72;1.85;;;20.20;59.90;;;;;;5097445;28;20194;-61
2023/10/14 01:08:25;;;;;;;8.77;2.40;;;20.20;59.90;;;;;;5106887;28;20224;-63
2023/10/14 01:10:55;;;;;;;6.03;1.90;;;20.20;59.80;;;;;;5104922;28;20216;-63
2023/10/14 01:13:23;;;;;;;5.60;2.03;;;20.20;59.70;;;;;;5098423;28;20301;-61
2023/10/14 01:16:01;;;;;;;4.60;1.70;;;20.20;59.70;;;;;;5110355;28;20193;-63
2023/10/14 01:21:31;;;;;;;8.27;1.98;;;20.20;59.50;;;;;;5020632;28;20221;-61
2023/10/14 01:24:00;;;;;;;5.97;1.50;;;20.20;59.50;;;;;;5097052;28;20205;-63
2023/10/14 01:26:32;;;;;;;6.28;1.90;;;20.20;59.60;;;;;;5105742;28;20190;-63
2023/10/14 01:29:00;;;;;;;3.83;1.50;;;20.20;59.40;;;;;;5105563;28;20220;-62
2023/10/14 01:32:05;;;;;;;4.25;1.90;;;20.20;59.40;;;;;;5097273;28;20570;-63
2023/10/14 01:34:42;;;;;;;3.63;1.50;;;20.20;59.20;;;;;;5100138;28;20192;-63
2023/10/14 01:37:18;;;;;;;5.75;1.90;;;20.10;59.20;;;;;;5099996;28;20709;-63
2023/10/14 01:39:56;;;;;;;4.97;1.70;;;20.20;59.30;;;;;;5109742;28;20272;-62
2023/10/14 01:42:24;;;;;;;5.85;1.95;;;20.10;59.10;;;;;;5099668;28;20225;-62
2023/10/14 01:44:53;;;;;;;4.57;1.88;;;20.20;59.20;;;;;;5102283;28;20186;-62
2023/10/14 01:47:25;;;;;;;5.28;1.70;;;20.20;59.10;;;;;;5108401;28;20225;-63
2023/10/14 01:49:53;;;;;;;5.68;1.98;;;20.20;59.00;;;;;;5096008;28;20850;-63
2023/10/14 01:52:21;;;;;;;8.23;1.92;;;20.20;59.00;;;;;;5106339;28;20237;-62
2023/10/14 01:54:50;;;;;;;3.35;1.40;;;20.10;58.90;;;;;;5103238;28;20197;-60
2023/10/14 01:57:18;;;;;;;4.63;1.85;;;20.10;58.80;;;;;;5098187;28;20218;-63
2023/10/14 01:59:47;;;;;;;5.82;1.85;;;20.10;58.80;;;;;;5109218;28;20232;-63
2023/10/14 02:02:20;;;;;;;6.85;2.20;;;20.10;58.80;;;;;;5098729;28;20274;-61
2023/10/14 02:04:55;;;;;;;5.65;1.83;;;20.20;58.80;;;;;;5102519;28;20265;-63
2023/10/14 02:07:26;;;;;;;6.50;1.65;;;20.10;58.70;;;;;;5107908;28;20222;-61
2023/10/14 02:09:56;;;;;;;6.75;1.40;;;20.10;58.60;;;;;;5095249;28;20557;-62
2023/10/14 02:12:24;;;;;;;3.65;1.23;;;20.10;58.50;;;;;;5105988;28;20221;-62
2023/10/14 02:14:57;;;;;;;4.22;1.70;;;20.20;58.60;;;;;;5103535;28;20208;-60
2023/10/14 02:17:25;;;;;;;5.85;1.80;;;20.10;58.50;;;;;;5096769;28;20221;-61
2023/10/14 02:19:59;;;;;;;6.10;1.70;;;20.10;59.10;;;;;;5106834;28;20193;-62
2023/10/14 02:25:09;;;;;;;5.53;1.55;;;20.10;58.30;;;;;;5091522;28;20189;-63
2023/10/14 02:27:37;;;;;;;4.75;1.73;;;20.10;58.30;;;;;;5095758;28;20286;-62
2023/10/14 02:30:06;;;;;;;5.63;1.70;;;20.10;58.30;;;;;;5106517;28;20189;-60
2023/10/14 02:32:34;;;;;;;3.90;1.50;;;20.10;58.20;;;;;;5111863;28;20221;-62
2023/10/14 02:35:15;;;;;;;5.18;1.48;;;20.10;58.10;;;;;;5100171;28;20202;-61
2023/10/14 02:38:18;;;;;;;7.20;1.60;;;20.10;58.20;;;;;;5108993;28;20277;-63
2023/10/14 02:41:03;;;;;;;6.95;1.63;;;20.10;58.10;;;;;;5096629;28;20766;-64
2023/10/14 02:43:31;;;;;;;4.25;1.23;;;20.10;58.00;;;;;;5095716;28;20680;-63
2023/10/14 02:46:02;;;;;;;5.78;1.50;;;20.10;58.10;;;;;;5095554;28;20182;-62
2023/10/14 02:48:52;;;;;;;5.25;1.40;;;20.10;58.00;;;;;;5104114;28;20237;-63
2023/10/14 02:51:18;;;;;;;6.65;1.90;;;20.10;58.00;;;;;;5106179;28;20193;-62
2023/10/14 02:53:45;;;;;;;6.57;1.88;;;20.00;57.80;;;;;;5095331;28;20216;-63
2023/10/14 02:56:21;;;;;;;5.13;1.73;;;20.10;57.90;;;;;;5106174;28;20189;-62
2023/10/14 02:58:48;;;;;;;6.07;1.63;;;20.00;57.80;;;;;;5102210;28;20227;-61
2023/10/14 03:01:22;;;;;;;7.13;1.70;;;20.10;57.80;;;;;;5097775;28;20205;-63
2023/10/14 03:03:50;;;;;;;4.90;1.58;;;20.10;57.80;;;;;;5108310;28;20233;-62
2023/10/14 03:06:20;;;;;;;4.57;1.42;;;20.00;57.70;;;;;;5098185;28;20283;-62
2023/10/14 03:08:58;;;;;;;5.47;1.73;;;20.10;57.70;;;;;;5101716;28;20219;-62
2023/10/14 03:11:31;;;;;;;3.72;1.70;;;20.00;57.60;;;;;;5107399;28;20185;-62
2023/10/14 03:13:58;;;;;;;7.47;1.58;;;20.00;57.60;;;;;;5095339;28;20216;-61
2023/10/14 03:16:26;;;;;;;10.20;1.75;;;20.00;57.50;;;;;;5104211;28;20218;-59
2023/10/14 03:18:54;;;;;;;5.80;1.83;;;20.00;57.50;;;;;;5103169;28;20224;-61
2023/10/14 03:21:27;;;;;;;4.07;1.48;;;20.00;57.40;;;;;;5102221;28;20651;-62
2023/10/14 03:23:57;;;;;;;4.72;1.73;;;20.00;57.40;;;;;;5094476;28;20690;-63
2023/10/14 03:26:28;;;;;;;6.10;1.92;;;20.00;57.40;;;;;;5110726;28;20698;-60
2023/10/14 03:28:57;;;;;;;6.53;1.55;;;20.10;57.50;;;;;;5111970;28;20300;-63
2023/10/14 03:31:24;;;;;;;4.13;1.48;;;20.00;57.40;;;;;;5111974;28;20185;-63
2023/10/14 03:33:58;;;;;;;5.40;1.73;;;20.00;57.40;;;;;;5111754;28;20269;-62
2023/10/14 03:36:29;;;;;;;4.75;1.63;;;20.00;57.30;;;;;;5111341;28;20193;-62
2023/10/14 03:38:58;;;;;;;3.63;1.70;;;20.00;57.20;;;;;;5112242;28;20262;-63
2023/10/14 03:41:29;;;;;;;4.25;1.50;;;20.00;57.20;;;;;;5112361;28;20193;-63
2023/10/14 03:44:00;;;;;;;5.07;1.90;;;20.00;57.10;;;;;;5112563;28;20233;-61
2023/10/14 03:46:32;;;;;;;2.90;1.23;;;20.00;57.10;;;;;;5112054;28;20189;-61
2023/10/14 03:49:06;;;;;;;3.40;1.58;;;20.00;57.10;;;;;;5112409;28;20286;-63
2023/10/14 03:51:35;;;;;;;6.82;1.67;;;20.00;57.10;;;;;;5112339;28;20552;-62
2023/10/14 03:54:08;;;;;;;6.95;2.20;;;20.00;57.00;;;;;;5112179;28;20231;-61
2023/10/14 03:56:44;;;;;;;4.68;1.73;;;20.00;57.00;;;;;;5111961;28;20648;-63
2023/10/14 03:59:25;;;;;;;4.03;1.38;;;20.00;57.00;;;;;;5111854;28;20225;-63
2023/10/14 04:02:15;;;;;;;4.88;1.40;;;20.00;56.90;;;;;;5111717;28;20246;-62
2023/10/14 04:04:43;;;;;;;2.97;1.20;;;20.00;56.90;;;;;;5112190;28;20279;-60
2023/10/14 04:07:15;;;;;;;5.53;1.70;;;20.00;56.90;;;;;;5114489;28;20270;-61
2023/10/14 04:09:50;;;;;;;4.80;1.70;;;20.00;56.80;;;;;;5115532;28;20181;-59
2023/10/14 04:12:33;;;;;;;5.85;1.42;;;20.00;56.80;;;;;;5115593;28;20644;-61
2023/10/14 04:15:15;;;;;;;4.38;1.40;;;19.90;56.70;;;;;;5115996;28;20220;-62
2023/10/14 04:17:47;;;;;;;5.55;1.73;;;20.00;56.80;;;;;;5115349;28;20617;-63
2023/10/14 04:20:22;;;;;;;2.63;1.27;;;19.90;56.60;;;;;;5115646;28;20185;-60
2023/10/14 04:22:53;;;;;;;3.03;1.58;;;19.90;57.20;;;;;;5115268;28;21043;-62
2023/10/14 04:25:22;;;;;;;3.88;1.60;;;20.00;56.70;;;;;;5114942;28;20192;-59
2023/10/14 04:30:42;;;;;;;3.67;1.50;;;19.90;56.40;;;;;;5105939;28;20197;-62
2023/10/14 04:33:19;;;;;;;5.60;1.70;;;19.90;56.50;;;;;;5115532;28;20248;-61
2023/10/14 04:36:08;;;;;;;4.93;1.30;;;19.90;56.40;;;;;;5115170;28;20685;-63
2023/10/14 04:38:42;;;;;;;5.93;1.85;;;19.90;56.40;;;;;;5115058;28;20220;-62
2023/10/14 04:41:13;;;;;;;4.25;1.35;;;19.90;56.40;;;;;;5114985;28;20227;-64
2023/10/14 04:44:00;;;;;;;5.95;1.30;;;19.90;56.40;;;;;;5115257;28;20561;-60
2023/10/14 04:46:46;;;;;;;4.38;1.48;;;19.90;56.40;;;;;;5114843;28;20272;-63
2023/10/14 04:49:15;;;;;;;6.60;1.42;;;19.90;56.30;;;;;;5115240;28;20217;-62
2023/10/14 04:51:55;;;;;;;7.05;1.55;;;19.90;56.30;;;;;;5115079;28;20192;-63
2023/10/14 04:54:23;;;;;;;3.45;1.67;;;19.90;56.30;;;;;;5114600;28;20217;-62
2023/10/14 04:56:50;;;;;;;4.00;1.40;;;19.90;56.20;;;;;;5114713;28;20276;-59
2023/10/14 04:59:24;;;;;;;4.95;1.52;;;19.90;56.30;;;;;;5114594;28;20237;-62
2023/10/14 05:01:55;;;;;;;5.43;1.88;;;19.90;56.20;;;;;;5114242;28;20662;-61
2023/10/14 05:04:29;;;;;;;5.10;1.70;;;19.90;56.20;;;;;;5114718;28;20236;-60
2023/10/14 05:07:03;;;;;;;5.28;1.52;;;19.90;56.20;;;;;;5114940;28;20204;-62
2023/10/14 05:09:31;;;;;;;3.45;1.40;;;19.90;56.10;;;;;;5114329;28;20189;-62
2023/10/14 05:12:00;;;;;;;6.57;1.48;;;19.90;56.10;;;;;;5114773;28;20220;-59
2023/10/14 05:14:36;;;;;;;2.90;1.50;;;19.90;56.10;;;;;;5114601;28;20213;-60
2023/10/14 05:17:25;;;;;;;4.07;1.88;;;19.90;56.10;;;;;;5113930;28;20643;-61
2023/10/14 05:23:30;;;;;;;8.65;2.05;;;19.90;55.90;;;;;;5113755;28;20270;-62
2023/10/14 05:25:58;;;;;;;3.75;1.55;;;19.80;55.90;;;;;;5114437;28;20193;-63
2023/10/14 05:28:29;;;;;;;6.45;1.70;;;19.80;55.90;;;;;;5114315;28;20213;-62
2023/10/14 05:30:57;;;;;;;4.15;1.73;;;19.80;55.80;;;;;;5113983;28;20326;-61
2023/10/14 05:33:27;;;;;;;6.82;1.73;;;19.80;55.70;;;;;;5114223;28;20224;-62
2023/10/14 05:35:57;;;;;;;4.70;1.60;;;19.80;55.80;;;;;;5114305;28;20193;-59
2023/10/14 05:38:24;;;;;;;3.65;1.35;;;19.80;55.80;;;;;;5113757;28;20217;-63
2023/10/14 05:40:55;;;;;;;3.53;1.40;;;19.80;55.70;;;;;;5114056;28;20192;-63
2023/10/14 05:43:24;;;;;;;2.80;1.27;;;19.90;55.70;;;;;;5113862;28;20233;-61
2023/10/14 05:45:52;;;;;;;4.38;1.27;;;19.80;55.60;;;;;;5113708;28;20194;-62
2023/10/14 05:48:26;;;;;;;3.15;1.40;;;19.80;55.40;;;;;;5114006;28;20452;-63
2023/10/14 05:50:57;;;;;;;5.03;1.15;;;19.80;55.40;;;;;;5113549;28;20189;-63
2023/10/14 05:53:25;;;;;;;4.72;1.45;;;19.80;55.40;;;;;;5113445;28;20266;-62
2023/10/14 05:56:09;;;;;;;4.25;1.50;;;19.80;55.40;;;;;;5113913;28;20185;-62
2023/10/14 05:58:37;;;;;;;3.45;1.40;;;19.80;55.40;;;;;;5113127;28;20265;-61
2023/10/14 06:01:09;;;;;;;3.25;1.10;;;19.80;55.40;;;;;;5113431;28;20201;-61
2023/10/14 06:03:36;;;;;;;5.93;1.50;;;19.80;55.40;;;;;;5113241;28;20328;-60
2023/10/14 06:06:09;;;;;;;4.25;1.50;;;19.80;55.40;;;;;;5113353;28;20272;-63
2023/10/14 06:08:37;;;;;;;4.78;1.48;;;19.80;55.40;;;;;;5113410;28;20262;-63
2023/10/14 06:11:06;;;;;;;5.75;1.80;;;19.80;55.40;;;;;;5113236;28;20201;-61
2023/10/14 06:13:33;;;;;;;4.03;1.50;;;19.80;55.40;;;;;;5113293;28;20232;-63
2023/10/14 06:16:04;;;;;;;3.03;1.50;;;19.80;55.40;;;;;;5113078;28;20205;-63
2023/10/14 06:18:32;;;;;;;5.05;2.03;;;19.80;55.40;;;;;;5113544;28;20217;-61
2023/10/14 06:21:00;;;;;;;5.93;1.70;;;19.80;55.40;;;;;;5113415;28;20189;-62
2023/10/14 06:23:29;;;;;;;2.95;1.23;;;19.80;55.40;;;;;;5113041;28;20264;-63
2023/10/14 06:25:56;;;;;;;2.70;1.33;;;19.80;55.40;;;;;;5113347;28;20193;-63
2023/10/14 06:28:24;;;;;;;5.43;1.83;;;19.80;55.40;;;;;;5113173;28;20231;-62
2023/10/14 06:30:51;;;;;;;5.63;1.33;;;19.80;55.40;;;;;;5112275;28;20281;-61
2023/10/14 06:36:03;;;;;;;5.32;1.48;;;19.70;55.30;;;;;;5076470;28;20203;-60
2023/10/14 06:41:46;;;;;;;4.82;1.50;;;19.80;55.20;;;;;;5049224;28;20303;-62
2023/10/14 06:44:15;;;;;;;2.88;1.30;;;19.70;55.30;;;;;;5049528;28;20227;-63
2023/10/14 06:46:44;;;;;;;3.72;1.30;;;19.80;55.40;;;;;;5085092;28;20197;-62
2023/10/14 06:49:13;;;;;;;4.55;1.17;;;19.70;55.30;;;;;;5112821;28;20221;-59
2023/10/14 06:51:43;;;;;;;3.80;1.02;;;19.70;55.30;;;;;;5112377;28;20200;-61
2023/10/14 06:54:14;;;;;;;4.28;1.27;;;19.70;55.20;;;;;;5112684;28;20213;-61
2023/10/14 06:56:44;;;;;;;4.82;1.40;;;19.70;55.20;;;;;;5112567;28;20233;-62
2023/10/14 06:59:13;;;;;;;2.67;1.50;;;19.70;55.20;;;;;;5112254;28;20236;-63
2023/10/14 07:01:43;;;;;;;7.38;1.60;;;19.70;55.00;;;;;;5112863;28;20623;-60
2023/10/14 07:04:12;;;;;;;3.10;1.40;;;19.70;55.70;;;;;;5112712;28;20236;-60
2023/10/14 07:06:39;;;;;;;2.95;1.23;;;19.70;55.00;;;;;;5112170;28;20189;-61
2023/10/14 07:09:17;;;;;;;5.13;1.23;;;19.70;55.00;;;;;;5112873;28;20217;-62
2023/10/14 07:11:46;;;;;;;4.47;1.40;;;19.70;55.00;;;;;;5113034;28;20283;-62
2023/10/14 07:14:14;;;;;;;4.70;1.42;;;19.70;55.00;;;;;;5112554;28;20213;-63
2023/10/14 07:16:41;;;;;;;4.45;1.30;;;19.70;54.90;;;;;;5112728;28;20185;-62
2023/10/14 07:19:08;;;;;;;4.13;1.50;;;19.70;55.00;;;;;;5112788;28;20217;-62
2023/10/14 07:21:36;;;;;;;3.28;1.15;;;19.70;54.90;;;;;;5112329;28;20268;-63
2023/10/14 07:24:06;;;;;;;3.55;1.48;;;19.70;54.90;;;;;;5112711;28;20224;-63
2023/10/14 07:26:36;;;;;;;2.80;1.10;;;19.70;54.90;;;;;;5112610;28;20185;-62
2023/10/14 07:29:06;;;;;;;5.32;1.25;;;19.70;54.90;;;;;;5111963;28;20694;-61
2023/10/14 07:31:36;;;;;;;4.38;1.10;;;19.70;54.90;;;;;;5112213;28;20193;-62
2023/10/14 07:34:09;;;;;;;4.40;1.50;;;19.70;54.80;;;;;;5112419;28;20220;-60
2023/10/14 07:36:36;;;;;;;5.50;1.40;;;19.70;54.80;;;;;;5111821;28;20200;-62
2023/10/14 07:39:27;;;;;;;4.13;1.58;;;19.70;54.80;;;;;;5112214;28;20213;-62
2023/10/14 07:41:53;;;;;;;2.80;1.38;;;19.70;54.80;;;;;;5114270;28;20196;-62
2023/10/14 07:44:22;;;;;;;3.10;1.27;;;19.70;54.70;;;;;;5115874;28;20289;-60
2023/10/14 07:46:50;;;;;;;3.30;1.23;;;19.70;54.80;;;;;;5116423;28;20573;-63
2023/10/14 07:49:18;;;;;;;4.30;1.30;;;19.70;54.70;;;;;;5116240;28;20217;-63
2023/10/14 07:51:47;;;;;;;6.35;1.60;;;19.70;54.70;;;;;;5115943;28;20200;-60
2023/10/14 07:54:14;;;;;;;3.65;1.48;;;19.70;54.70;;;;;;5116233;28;20214;-61
2023/10/14 07:56:46;;;;;;;3.33;1.23;;;19.70;54.70;;;;;;5116217;28;20197;-62
2023/10/14 07:59:19;;;;;;;4.30;1.25;;;19.70;54.70;;;;;;5115371;28;20608;-61
2023/10/14 08:01:50;;;;;;;2.85;1.30;;;19.60;54.60;;;;;;5115752;28;20225;-62
2023/10/14 08:04:20;;;;;;;3.42;1.17;;;19.70;54.70;;;;;;5115918;28;20237;-62
2023/10/14 08:06:48;;;;;;;3.58;1.30;;;19.60;54.60;;;;;;5115691;28;20226;-62
2023/10/14 08:09:24;;;;;;;6.85;1.75;;;19.70;54.60;;;;;;5116118;28;20266;-63
2023/10/14 08:11:52;;;;;;;3.42;1.25;;;19.60;54.50;;;;;;5115934;28;20277;-63
2023/10/14 08:14:20;;;;;;;4.30;1.30;;;19.60;54.50;;;;;;5115285;28;20220;-58
2023/10/14 08:16:48;;;;;;;3.97;1.40;;;19.60;55.10;;;;;;5115818;28;20185;-62
2023/10/14 08:19:16;;;;;;;2.20;1.00;;;19.60;54.50;;;;;;5115896;28;20216;-61
2023/10/14 08:21:43;;;;;;;4.07;1.20;;;19.60;54.50;;;;;;5115302;28;20270;-63
2023/10/14 08:24:14;;;;;;;3.38;1.27;;;19.60;54.40;;;;;;5115467;28;20770;-61
2023/10/14 08:26:42;;;;;;;3.67;1.13;;;19.60;54.40;;;;;;5115596;28;20197;-61
2023/10/14 08:29:12;;;;;;;5.18;1.10;;;19.60;54.40;;;;;;5115019;28;20228;-60
2023/10/14 08:31:42;;;;;;;2.25;1.33;;;19.60;54.40;;;;;;5115537;28;20190;-59
2023/10/14 08:34:12;;;;;;;3.05;1.33;;;19.60;54.40;;;;;;5115315;28;20296;-61
2023/10/14 08:36:42;;;;;;;3.60;1.40;;;19.60;54.40;;;;;;5115113;28;20268;-63
2023/10/14 08:39:14;;;;;;;2.83;1.13;;;19.60;54.30;;;;;;5115146;28;20225;-62
2023/10/14 08:41:48;;;;;;;4.03;1.30;;;19.60;54.30;;;;;;5115362;28;20181;-59
2023/10/14 08:44:20;;;;;;;5.18;1.30;;;19.60;54.30;;;;;;5115091;28;20232;-61
2023/10/14 08:46:49;;;;;;;2.63;1.27;;;19.60;54.20;;;;;;5115272;28;20189;-62
2023/10/14 08:49:29;;;;;;;5.57;1.08;;;19.60;54.30;;;;;;5115303;28;20221;-60
2023/10/14 08:51:58;;;;;;;3.15;1.15;;;19.60;54.30;;;;;;5114791;28;20189;-62
2023/10/14 08:54:26;;;;;;;4.25;1.27;;;19.60;54.20;;;;;;5114983;28;20217;-63
2023/10/14 08:56:53;;;;;;;3.78;1.00;;;19.60;54.10;;;;;;5114696;28;20193;-63
2023/10/14 08:59:20;;;;;;;3.60;1.42;;;19.60;54.10;;;;;;5114413;28;20706;-62
2023/10/14 09:01:54;;;;;;;2.58;1.20;;;19.60;54.10;;;;;;5114985;28;20193;-63
2023/10/14 09:04:30;;;;;;;4.97;1.70;;;19.60;54.70;;;;;;5114130;28;20225;-60
2023/10/14 09:07:02;;;;;;;3.03;1.30;;;19.60;54.00;;;;;;5114595;28;20666;-61
2023/10/14 09:09:31;;;;;;;4.20;1.27;;;19.60;54.10;;;;;;5114666;28;20222;-63
2023/10/14 09:12:10;;;;;;;4.05;1.40;;;19.60;54.10;;;;;;5114149;28;20228;-58
2023/10/14 09:14:38;;;;;;;2.00;1.08;;;19.60;54.00;;;;;;5114784;28;20213;-63
2023/10/14 09:17:08;;;;;;;2.47;1.10;;;19.60;54.00;;;;;;5114582;28;20250;-61
2023/10/14 09:19:48;;;;;;;2.75;0.95;;;19.60;53.90;;;;;;5114072;28;20238;-62
2023/10/14 09:22:23;;;;;;;5.20;1.30;;;19.60;54.00;;;;;;5114248;28;20197;-63
2023/10/14 09:24:51;;;;;;;4.60;1.25;;;19.60;53.90;;;;;;5114656;28;20232;-61
2023/10/14 09:27:19;;;;;;;2.83;1.10;;;19.60;53.90;;;;;;5113947;28;20276;-63
2023/10/14 09:29:47;;;;;;;3.25;1.38;;;19.60;53.90;;;;;;5114572;28;20213;-62
2023/10/14 09:32:15;;;;;;;3.65;1.10;;;19.60;53.90;;;;;;5114326;28;20189;-62
2023/10/14 09:34:45;;;;;;;3.55;1.10;;;19.60;53.90;;;;;;5113827;28;20217;-60
2023/10/14 09:37:13;;;;;;;3.47;1.38;;;19.60;54.50;;;;;;5114006;28;20193;-62
2023/10/14 09:39:42;;;;;;;4.35;1.15;;;19.60;53.80;;;;;;5114231;28;20208;-61
2023/10/14 09:42:15;;;;;;;3.13;0.95;;;19.60;53.80;;;;;;5113895;28;20185;-63
2023/10/14 09:44:43;;;;;;;3.15;1.05;;;19.60;53.80;;;;;;5113882;28;20240;-58
2023/10/14 09:47:14;;;;;;;3.60;1.13;;;19.60;53.70;;;;;;5114051;28;20185;-63
2023/10/14 09:49:42;;;;;;;2.95;1.00;;;19.60;53.70;;;;;;5113543;28;20583;-62
2023/10/14 09:52:15;;;;;;;4.03;1.35;;;19.60;53.70;;;;;;5113957;28;20197;-60
2023/10/14 09:54:43;;;;;;;5.57;1.50;;;19.60;53.70;;;;;;5114101;28;20213;-63
2023/10/14 09:57:13;;;;;;;2.03;1.00;;;19.60;53.60;;;;;;5113510;28;20217;-61
2023/10/14 09:59:42;;;;;;;3.17;1.15;;;19.60;53.60;;;;;;5113439;28;20243;-62
2023/10/14 10:02:10;;;;;;;5.38;1.20;;;19.60;53.60;;;;;;5113853;28;20197;-60
2023/10/14 10:04:45;;;;;;;3.92;1.20;;;19.60;53.70;;;;;;5112564;28;20229;-62
2023/10/14 10:07:27;;;;;;;2.47;1.10;;;19.60;53.60;;;;;;5113742;28;20185;-61
2023/10/14 10:10:14;;;;;;;4.30;1.20;;;19.60;53.60;;;;;;5113496;28;20299;-62
2023/10/14 10:12:43;;;;;;;2.58;1.20;;;19.60;53.60;;;;;;5112906;28;20735;-62
2023/10/14 10:15:17;;;;;;;1.80;1.00;;;19.60;53.60;;;;;;5113178;28;20181;-62
2023/10/14 10:17:55;;;;;;;3.78;1.10;;;19.60;53.60;;;;;;5113086;28;20189;-62
2023/10/14 10:20:29;;;;;;;1.88;0.90;;;19.60;53.50;;;;;;5113010;28;20185;-62
2023/10/14 10:23:01;;;;;;;3.00;0.93;;;19.60;53.50;;;;;;5113064;28;20186;-63
2023/10/14 10:25:49;;;;;;;3.42;0.93;;;19.60;53.50;;;;;;5112985;28;20220;-62
2023/10/14 10:28:38;;;;;;;3.35;1.10;;;19.60;53.50;;;;;;5112965;28;20223;-62
2023/10/14 10:31:09;;;;;;;1.92;0.95;;;19.60;53.40;;;;;;5113250;28;20186;-62
2023/10/14 10:33:54;;;;;;;1.95;1.00;;;19.60;53.50;;;;;;5112955;28;20248;-61
2023/10/14 10:36:24;;;;;;;3.80;1.25;;;19.60;53.40;;;;;;5112892;28;20281;-61
2023/10/14 10:38:54;;;;;;;2.20;1.10;;;19.60;53.50;;;;;;5113197;28;20288;-63
2023/10/14 10:41:27;;;;;;;3.67;1.10;;;19.60;53.40;;;;;;5112817;28;20189;-61
2023/10/14 10:44:02;;;;;;;1.52;0.90;;;19.60;53.40;;;;;;5113085;28;20219;-62
2023/10/14 10:46:30;;;;;;;4.63;1.20;;;19.50;53.30;;;;;;5112727;28;20735;-60
2023/10/14 10:48:58;;;;;;;2.72;1.02;;;19.60;53.40;;;;;;5112724;28;20213;-61
2023/10/14 10:51:31;;;;;;;3.20;0.90;;;19.60;53.40;;;;;;5112990;28;20189;-62
2023/10/14 10:54:01;;;;;;;2.22;1.08;;;19.60;53.40;;;;;;5112657;28;20714;-62
2023/10/14 10:56:30;;;;;;;1.92;1.23;;;19.60;53.40;;;;;;5112648;28;20185;-58
2023/10/14 10:58:59;;;;;;;2.25;0.98;;;19.50;53.30;;;;;;5112280;28;20698;-62
2023/10/14 11:01:31;;;;;;;2.15;1.15;;;19.60;53.40;;;;;;5112518;28;20197;-61
2023/10/14 11:04:00;;;;;;;2.53;1.05;;;19.50;53.30;;;;;;5112536;28;20305;-60
2023/10/14 11:06:29;;;;;;;3.28;1.50;;;19.60;53.40;;;;;;5112803;28;20227;-61
2023/10/14 11:08:59;;;;;;;4.20;1.15;;;19.50;53.30;;;;;;5112771;28;20278;-62
2023/10/14 11:11:33;;;;;;;1.35;0.90;;;19.60;53.30;;;;;;5112430;28;20185;-62
2023/10/14 11:14:01;;;;;;;2.65;1.08;;;19.60;53.30;;;;;;5112821;28;20223;-61
2023/10/14 11:16:32;;;;;;;4.28;1.08;;;19.50;53.30;;;;;;5115840;28;20222;-62
2023/10/14 11:19:00;;;;;;;1.77;1.00;;;19.50;53.20;;;;;;5116675;28;20235;-60
2023/10/14 11:21:28;;;;;;;3.88;1.00;;;19.50;53.20;;;;;;5116886;28;20186;-60
2023/10/14 11:23:56;;;;;;;3.20;0.80;;;19.50;53.20;;;;;;5116963;28;20224;-62
2023/10/14 11:26:24;;;;;;;2.13;0.95;;;19.60;53.30;;;;;;5116365;28;20224;-62
2023/10/14 11:28:53;;;;;;;3.55;1.00;;;19.60;53.30;;;;;;5116760;28;20217;-60
2023/10/14 11:31:24;;;;;;;2.95;1.00;;;19.50;53.10;;;;;;5116377;28;20280;-61
2023/10/14 11:33:55;;;;;;;3.00;1.08;;;19.60;53.30;;;;;;5116333;28;20216;-61
2023/10/14 11:36:27;;;;;;;3.53;1.55;;;19.60;53.30;;;;;;5116659;28;20303;-60
2023/10/14 11:38:58;;;;;;;2.90;1.00;;;19.50;53.20;;;;;;5116104;28;20228;-60
2023/10/14 11:41:27;;;;;;;2.15;1.20;;;19.50;53.20;;;;;;5116025;28;20186;-61
2023/10/14 11:43:56;;;;;;;1.77;1.02;;;19.60;53.20;;;;;;5115855;28;20213;-61
2023/10/14 11:46:25;;;;;;;2.55;0.90;;;19.50;53.10;;;;;;5116239;28;20224;-62
2023/10/14 11:48:55;;;;;;;3.28;1.23;;;19.50;53.20;;;;;;5115885;28;20213;-61
2023/10/14 11:51:22;;;;;;;2.40;1.05;;;19.50;53.10;;;;;;5116021;28;20190;-60
2023/10/14 11:53:52;;;;;;;2.88;1.10;;;19.50;53.10;;;;;;5112767;28;20219;-62
2023/10/14 11:56:20;;;;;;;3.72;1.08;;;19.50;53.20;;;;;;5104530;28;20198;-59
2023/10/14 11:58:49;;;;;;;4.28;1.10;;;19.60;53.20;;;;;;5114684;28;20288;-62
2023/10/14 12:01:34;;;;;;;4.75;1.20;;;19.60;53.10;;;;;;5110371;28;20723;-61
2023/10/14 12:04:01;;;;;;;6.25;1.20;;;19.60;53.00;;;;;;5090441;28;20264;-63
2023/10/14 12:06:30;;;;;;;3.60;1.40;;;19.60;53.20;;;;;;5103136;28;20228;-61
2023/10/14 12:08:58;;;;;;;4.07;1.05;;;19.60;53.20;;;;;;5103241;28;20239;-61
2023/10/14 12:11:27;;;;;;;6.82;1.30;;;19.60;53.20;;;;;;5109692;28;20273;-61
2023/10/14 12:13:54;;;;;;;8.57;1.48;;;19.70;53.70;;;;;;5103338;28;20834;-63
2023/10/14 12:16:23;;;;;;;4.90;1.27;;;19.80;53.80;;;;;;5097773;28;20202;-61
2023/10/14 12:18:58;;;;;;;5.38;0.90;;;19.90;53.50;;;;;;5100221;28;20715;-63
2023/10/14 12:21:26;;;;;;;10.32;1.15;;;20.00;53.60;;;;;;5106037;28;20197;-62
2023/10/14 12:23:55;;;;;;;9.90;1.17;;;20.00;53.50;;;;;;5100517;28;20300;-60
2023/10/14 12:26:27;;;;;;;3.55;1.13;;;20.10;53.50;;;;;;5093202;28;20729;-63
2023/10/14 12:28:54;;;;;;;4.35;0.90;;;20.20;53.60;;;;;;5092598;28;20221;-63
2023/10/14 12:31:24;;;;;;;12.23;1.60;;;20.20;53.50;;;;;;5099220;28;20274;-63
2023/10/14 12:33:54;;;;;;;15.25;1.60;;;20.20;53.20;;;;;;5099207;28;20271;-61
2023/10/14 12:36:25;;;;;;;10.43;1.27;;;20.20;51.10;;;;;;5089828;28;20217;-62
2023/10/14 12:39:08;;;;;;;4.82;1.10;;;20.10;51.70;;;;;;5091456;28;20243;-61
2023/10/14 12:41:40;;;;;;;7.22;1.00;;;20.10;52.20;;;;;;5106994;28;20189;-63
2023/10/14 12:44:13;;;;;;;17.30;1.45;;;20.10;52.40;;;;;;5100481;28;20232;-61
2023/10/14 12:46:45;;;;;;;6.70;1.35;;;20.10;52.60;;;;;;5096521;28;20239;-61
2023/10/14 12:49:22;;;;;;;11.10;2.50;;;20.20;52.60;;;;;;5046260;28;20320;-60
2023/10/14 12:51:56;;;;;;;6.95;1.75;;;20.20;52.60;;;;;;5102753;28;20934;-58
2023/10/14 12:54:34;;;;;;;5.13;1.33;;;20.20;52.90;;;;;;5092659;28;20216;-61
2023/10/14 12:57:04;;;;;;;6.40;1.42;;;20.30;53.00;;;;;;5083747;28;20202;-60
2023/10/14 12:59:40;;;;;;;6.40;1.48;;;20.40;53.20;;;;;;5092947;28;20307;-61
2023/10/14 13:02:17;;;;;;;9.10;1.65;;;20.40;53.00;;;;;;5026970;28;20209;-61
2023/10/14 13:07:36;;;;;;;3.28;1.02;;;20.50;53.10;;;;;;5105976;28;20212;-60
2023/10/14 13:10:08;;;;;;;4.60;1.23;;;20.50;53.20;;;;;;5057928;28;20221;-61
2023/10/14 13:12:40;;;;;;;2.97;1.20;;;20.60;53.20;;;;;;5099280;28;20658;-60
2023/10/14 13:15:12;;;;;;;7.93;1.60;;;20.60;53.80;;;;;;5086868;28;20225;-57
2023/10/14 13:17:40;;;;;;;6.60;1.48;;;20.50;50.50;;;;;;5064925;28;20295;-57
2023/10/14 13:20:10;;;;;;;9.93;1.30;;;20.40;51.20;;;;;;5080448;28;20771;-61
2023/10/14 13:22:39;;;;;;;12.05;1.45;;;20.40;51.80;;;;;;5090363;28;20292;-59
2023/10/14 13:25:07;;;;;;;15.35;1.35;;;20.40;51.90;;;;;;5085246;28;20225;-61
2023/10/14 13:27:35;;;;;;;10.20;1.23;;;20.50;52.10;;;;;;5088376;28;20536;-60